createdAt,value
2022-07-29T00:00:07.494Z,21.8649292
2022-07-29T00:01:08.305Z,21.8548584
2022-07-29T00:02:08.997Z,21.8548584
2022-07-29T00:03:10.446Z,21.8145752
2022-07-29T00:04:12.112Z,21.824646
2022-07-29T00:05:12.909Z,21.79443359
2022-07-29T00:06:13.691Z,21.8145752
2022-07-29T00:07:14.568Z,21.8145752
2022-07-29T00:08:15.407Z,21.75415039
2022-07-29T00:09:17.002Z,21.75415039
2022-07-29T00:10:17.846Z,21.68365479
2022-07-29T00:11:18.659Z,21.63330078
2022-07-29T00:12:25.518Z,21.63330078
2022-07-29T00:13:32.213Z,21.63330078
2022-07-29T00:14:21.753Z,21.61315918
2022-07-29T00:15:22.623Z,21.61315918
2022-07-29T00:16:23.635Z,21.63330078
2022-07-29T00:17:24.432Z,21.61315918
2022-07-29T00:18:25.244Z,21.59301758
2022-07-29T00:19:26.133Z,21.58294678
2022-07-29T00:20:57.790Z,21.58294678
2022-07-29T00:21:58.605Z,21.58294678
2022-07-29T00:22:59.996Z,21.63330078
2022-07-29T00:24:00.761Z,21.67358398
2022-07-29T00:25:02.401Z,21.67358398
2022-07-29T00:26:03.306Z,21.67358398
2022-07-29T00:27:04.231Z,21.67358398
2022-07-29T00:28:05.066Z,21.67358398
2022-07-29T00:29:32.912Z,21.68365479
2022-07-29T00:30:06.737Z,21.68365479
2022-07-29T00:31:07.574Z,21.70379639
2022-07-29T00:32:08.360Z,21.68365479
2022-07-29T00:33:09.827Z,21.67358398
2022-07-29T00:34:10.582Z,21.66351318
2022-07-29T00:35:11.625Z,21.67358398
2022-07-29T00:36:13.509Z,21.68365479
2022-07-29T00:37:14.356Z,21.71386719
2022-07-29T00:38:15.150Z,21.75415039
2022-07-29T00:39:15.953Z,21.74407959
2022-07-29T00:40:16.840Z,21.73400879
2022-07-29T00:41:17.663Z,21.68365479
2022-07-29T00:42:18.534Z,21.64337158
2022-07-29T00:43:19.782Z,21.59301758
2022-07-29T00:44:20.560Z,21.59301758
2022-07-29T00:45:21.391Z,21.58294678
2022-07-29T00:46:22.274Z,21.55273438
2022-07-29T00:47:23.031Z,21.53259277
2022-07-29T00:48:23.701Z,21.49230957
2022-07-29T00:49:25.416Z,21.48223877
2022-07-29T00:50:26.854Z,21.42181396
2022-07-29T00:51:57.857Z,21.43188477
2022-07-29T00:52:59.484Z,21.45202637
2022-07-29T00:54:00.161Z,21.45202637
2022-07-29T00:55:03.737Z,21.43188477
2022-07-29T00:56:01.734Z,21.45202637
2022-07-29T00:57:02.542Z,21.46209717
2022-07-29T00:58:03.475Z,21.46209717
2022-07-29T00:59:04.114Z,21.46209717
2022-07-29T01:00:04.826Z,21.46209717
2022-07-29T01:01:05.664Z,21.48223877
2022-07-29T01:02:06.637Z,21.48223877
2022-07-29T01:03:07.999Z,21.49230957
2022-07-29T01:04:08.671Z,21.48223877
2022-07-29T01:05:10.301Z,21.48223877
2022-07-29T01:06:10.990Z,21.46209717
2022-07-29T01:07:11.678Z,21.45202637
2022-07-29T01:08:12.389Z,21.48223877
2022-07-29T01:09:13.950Z,21.46209717
2022-07-29T01:10:14.661Z,21.48223877
2022-07-29T01:11:15.384Z,21.49230957
2022-07-29T01:12:16.143Z,21.48223877
2022-07-29T01:13:17.485Z,21.48223877
2022-07-29T01:14:18.488Z,21.45202637
2022-07-29T01:15:18.853Z,21.45202637
2022-07-29T01:16:19.604Z,21.43188477
2022-07-29T01:17:20.251Z,21.43188477
2022-07-29T01:18:22.207Z,21.45202637
2022-07-29T01:19:21.669Z,21.45202637
2022-07-29T01:20:22.390Z,21.49230957
2022-07-29T01:21:23.058Z,21.52252197
2022-07-29T01:22:23.758Z,21.55273438
2022-07-29T01:23:25.307Z,21.53259277
2022-07-29T01:24:57.318Z,21.53259277
2022-07-29T01:25:58.082Z,21.55273438
2022-07-29T01:26:58.765Z,21.56280518
2022-07-29T01:27:59.506Z,21.58294678
2022-07-29T01:29:00.252Z,21.59301758
2022-07-29T01:30:01.009Z,21.58294678
2022-07-29T01:31:01.708Z,21.56280518
2022-07-29T01:32:02.441Z,21.53259277
2022-07-29T01:33:04.018Z,21.53259277
2022-07-29T01:34:04.785Z,21.52252197
2022-07-29T01:35:05.473Z,21.51245117
2022-07-29T01:36:06.962Z,21.51245117
2022-07-29T01:37:08.471Z,21.51245117
2022-07-29T01:38:09.180Z,21.49230957
2022-07-29T01:39:09.910Z,21.49230957
2022-07-29T01:40:10.624Z,21.48223877
2022-07-29T01:41:11.582Z,21.46209717
2022-07-29T01:42:12.264Z,21.43188477
2022-07-29T01:43:13.946Z,21.43188477
2022-07-29T01:44:14.952Z,21.42181396
2022-07-29T01:45:15.384Z,21.40167236
2022-07-29T01:46:16.156Z,21.40167236
2022-07-29T01:47:16.880Z,21.40167236
2022-07-29T01:48:17.606Z,21.40167236
2022-07-29T01:49:18.388Z,21.43188477
2022-07-29T01:50:19.047Z,21.45202637
2022-07-29T01:51:20.282Z,21.46209717
2022-07-29T01:52:21.011Z,21.46209717
2022-07-29T01:53:22.500Z,21.48223877
2022-07-29T01:54:23.207Z,21.51245117
2022-07-29T01:55:23.882Z,21.52252197
2022-07-29T01:56:24.589Z,21.53259277
2022-07-29T01:57:25.723Z,21.55273438
2022-07-29T01:58:56.802Z,21.53259277
2022-07-29T01:59:57.519Z,21.53259277
2022-07-29T02:00:58.184Z,21.52252197
2022-07-29T02:01:59.045Z,21.49230957
2022-07-29T02:03:00.300Z,21.48223877
2022-07-29T02:04:01.970Z,21.49230957
2022-07-29T02:05:02.775Z,21.51245117
2022-07-29T02:06:03.458Z,21.49230957
2022-07-29T02:07:05.106Z,21.49230957
2022-07-29T02:08:05.651Z,21.48223877
2022-07-29T02:09:06.390Z,21.48223877
2022-07-29T02:10:07.164Z,21.49230957
2022-07-29T02:11:07.862Z,21.51245117
2022-07-29T02:12:08.559Z,21.46209717
2022-07-29T02:13:09.961Z,21.46209717
2022-07-29T02:14:11.758Z,21.49230957
2022-07-29T02:15:12.320Z,21.51245117
2022-07-29T02:16:13.046Z,21.49230957
2022-07-29T02:17:13.684Z,21.49230957
2022-07-29T02:18:14.395Z,21.45202637
2022-07-29T02:19:15.100Z,21.45202637
2022-07-29T02:20:15.817Z,21.43188477
2022-07-29T02:21:16.488Z,21.45202637
2022-07-29T02:22:17.293Z,21.46209717
2022-07-29T02:23:18.476Z,21.45202637
2022-07-29T02:24:19.415Z,21.43188477
2022-07-29T02:25:19.973Z,21.45202637
2022-07-29T02:26:20.662Z,21.45202637
2022-07-29T02:27:21.986Z,21.46209717
2022-07-29T02:28:22.689Z,21.48223877
2022-07-29T02:29:23.406Z,21.49230957
2022-07-29T02:30:24.154Z,21.51245117
2022-07-29T02:31:24.864Z,21.52252197
2022-07-29T02:32:56.082Z,21.53259277
2022-07-29T02:33:57.336Z,21.53259277
2022-07-29T02:34:58.039Z,21.53259277
2022-07-29T02:35:58.781Z,21.53259277
2022-07-29T02:36:59.503Z,21.55273438
2022-07-29T02:38:00.233Z,21.58294678
2022-07-29T02:39:00.922Z,21.58294678
2022-07-29T02:40:02.476Z,21.61315918
2022-07-29T02:41:03.240Z,21.61315918
2022-07-29T02:42:04.802Z,21.63330078
2022-07-29T02:43:05.544Z,21.61315918
2022-07-29T02:44:06.850Z,21.61315918
2022-07-29T02:45:07.657Z,21.64337158
2022-07-29T02:46:12.719Z,21.66351318
2022-07-29T02:47:09.098Z,21.67358398
2022-07-29T02:48:10.305Z,21.61315918
2022-07-29T02:49:12.072Z,21.59301758
2022-07-29T02:50:12.683Z,21.58294678
2022-07-29T02:51:13.479Z,21.58294678
2022-07-29T02:52:14.129Z,21.56280518
2022-07-29T02:53:14.894Z,21.53259277
2022-07-29T02:54:16.813Z,21.52252197
2022-07-29T02:55:17.042Z,21.55273438
2022-07-29T02:56:17.774Z,21.55273438
2022-07-29T02:57:18.463Z,21.53259277
2022-07-29T02:58:19.165Z,21.56280518
2022-07-29T02:59:19.885Z,21.58294678
2022-07-29T03:00:20.619Z,21.56280518
2022-07-29T03:01:22.186Z,21.48223877
2022-07-29T03:02:22.523Z,21.45202637
2022-07-29T03:03:23.278Z,21.38153076
2022-07-29T03:04:55.707Z,21.38153076
2022-07-29T03:05:56.443Z,21.37145996
2022-07-29T03:06:57.196Z,21.37145996
2022-07-29T03:07:58.825Z,21.36138916
2022-07-29T03:08:59.541Z,21.33117676
2022-07-29T03:10:00.830Z,21.30096436
2022-07-29T03:11:01.547Z,21.28082275
2022-07-29T03:12:02.271Z,21.30096436
2022-07-29T03:13:03.072Z,21.31103516
2022-07-29T03:14:04.489Z,21.30096436
2022-07-29T03:15:05.274Z,21.31103516
2022-07-29T03:16:06.106Z,21.34124756
2022-07-29T03:17:06.744Z,21.36138916
2022-07-29T03:18:08.330Z,21.34124756
2022-07-29T03:19:09.085Z,21.38153076
2022-07-29T03:20:09.807Z,21.36138916
2022-07-29T03:21:10.495Z,21.30096436
2022-07-29T03:22:11.481Z,21.28082275
2022-07-29T03:23:12.204Z,21.24053955
2022-07-29T03:24:14.301Z,21.21032715
2022-07-29T03:25:14.510Z,21.19018555
2022-07-29T03:26:15.271Z,21.19018555
2022-07-29T03:27:15.999Z,21.21032715
2022-07-29T03:28:17.349Z,21.21032715
2022-07-29T03:29:18.067Z,21.22039795
2022-07-29T03:30:22.131Z,21.24053955
2022-07-29T03:31:19.667Z,21.21032715
2022-07-29T03:32:25.255Z,21.22039795
2022-07-29T03:33:21.001Z,21.24053955
2022-07-29T03:34:23.507Z,21.27075195
2022-07-29T03:35:23.078Z,21.27075195
2022-07-29T03:36:23.822Z,21.24053955
2022-07-29T03:37:55.877Z,21.24053955
2022-07-29T03:38:56.619Z,21.22039795
2022-07-29T03:39:57.395Z,21.24053955
2022-07-29T03:40:58.136Z,21.26068115
2022-07-29T03:41:58.861Z,21.26068115
2022-07-29T03:43:00.400Z,21.30096436
2022-07-29T03:44:01.980Z,21.28082275
2022-07-29T03:45:02.705Z,21.28082275
2022-07-29T03:46:03.505Z,21.27075195
2022-07-29T03:47:04.151Z,21.28082275
2022-07-29T03:48:04.913Z,21.27075195
2022-07-29T03:49:05.631Z,21.28082275
2022-07-29T03:50:06.998Z,21.30096436
2022-07-29T03:51:07.741Z,21.27075195
2022-07-29T03:52:08.440Z,21.24053955
2022-07-29T03:53:09.241Z,21.28082275
2022-07-29T03:54:11.336Z,21.28082275
2022-07-29T03:55:11.851Z,21.28082275
2022-07-29T03:56:12.580Z,21.30096436
2022-07-29T03:57:13.290Z,21.33117676
2022-07-29T03:58:14.019Z,21.33117676
2022-07-29T03:59:14.727Z,21.34124756
2022-07-29T04:00:15.426Z,21.33117676
2022-07-29T04:01:16.216Z,21.26068115
2022-07-29T04:02:21.570Z,21.18011475
2022-07-29T04:03:17.770Z,21.15997314
2022-07-29T04:04:19.611Z,21.11968994
2022-07-29T04:05:19.685Z,21.10961914
2022-07-29T04:06:20.421Z,21.08947754
2022-07-29T04:07:21.136Z,21.07940674
2022-07-29T04:08:22.886Z,21.07940674
2022-07-29T04:09:23.557Z,21.05926514
2022-07-29T04:10:54.740Z,21.04919434
2022-07-29T04:11:59.628Z,21.05926514
2022-07-29T04:12:56.203Z,21.08947754
2022-07-29T04:13:57.512Z,21.05926514
2022-07-29T04:14:58.258Z,21.05926514
2022-07-29T04:15:59.010Z,21.07940674
2022-07-29T04:16:59.719Z,21.05926514
2022-07-29T04:18:00.598Z,21.00891113
2022-07-29T04:19:01.196Z,21.00891113
2022-07-29T04:20:02.488Z,21.00891113
2022-07-29T04:21:03.231Z,21.02905273
2022-07-29T04:22:03.999Z,21.08947754
2022-07-29T04:23:04.833Z,21.08947754
2022-07-29T04:24:06.565Z,21.05926514
2022-07-29T04:25:07.292Z,21.04919434
2022-07-29T04:26:08.043Z,21.02905273
2022-07-29T04:27:08.823Z,21.04919434
2022-07-29T04:28:09.689Z,21.04919434
2022-07-29T04:29:10.586Z,21.05926514
2022-07-29T04:30:11.537Z,21.05926514
2022-07-29T04:31:12.313Z,21.07940674
2022-07-29T04:32:13.012Z,21.07940674
2022-07-29T04:33:13.848Z,21.07940674
2022-07-29T04:34:15.861Z,21.07940674
2022-07-29T04:35:16.300Z,21.08947754
2022-07-29T04:36:28.714Z,21.10961914
2022-07-29T04:37:17.795Z,21.10961914
2022-07-29T04:38:18.670Z,21.12976074
2022-07-29T04:39:22.907Z,21.12976074
2022-07-29T04:40:20.969Z,21.10961914
2022-07-29T04:41:21.620Z,21.08947754
2022-07-29T04:42:27.767Z,21.10961914
2022-07-29T04:43:23.495Z,21.12976074
2022-07-29T04:44:54.977Z,21.12976074
2022-07-29T04:45:55.778Z,21.12976074
2022-07-29T04:46:56.473Z,21.18011475
2022-07-29T04:47:57.190Z,21.21032715
2022-07-29T04:48:58.219Z,21.21032715
2022-07-29T04:49:59.986Z,21.21032715
2022-07-29T04:51:00.769Z,21.19018555
2022-07-29T04:52:01.531Z,21.18011475
2022-07-29T04:53:02.226Z,21.19018555
2022-07-29T04:54:03.038Z,21.19018555
2022-07-29T04:55:04.457Z,21.18011475
2022-07-29T04:56:05.223Z,21.15997314
2022-07-29T04:57:05.955Z,21.12976074
2022-07-29T04:58:06.734Z,21.11968994
2022-07-29T04:59:07.577Z,21.11968994
2022-07-29T05:00:08.410Z,21.08947754
2022-07-29T05:01:09.276Z,21.08947754
2022-07-29T05:02:09.982Z,21.10961914
2022-07-29T05:03:10.861Z,21.12976074
2022-07-29T05:04:12.894Z,21.14990234
2022-07-29T05:05:13.472Z,21.14990234
2022-07-29T05:06:14.955Z,21.14990234
2022-07-29T05:07:15.706Z,21.14990234
2022-07-29T05:08:16.430Z,21.12976074
2022-07-29T05:09:17.301Z,21.12976074
2022-07-29T05:10:18.190Z,21.12976074
2022-07-29T05:11:22.433Z,21.14990234
2022-07-29T05:12:20.767Z,21.14990234
2022-07-29T05:13:21.537Z,21.12976074
2022-07-29T05:14:23.062Z,21.14990234
2022-07-29T05:15:54.482Z,21.14990234
2022-07-29T05:16:55.239Z,21.18011475
2022-07-29T05:17:55.985Z,21.18011475
2022-07-29T05:18:56.679Z,21.18011475
2022-07-29T05:19:58.075Z,21.14990234
2022-07-29T05:20:58.965Z,21.15997314
2022-07-29T05:21:59.818Z,21.18011475
2022-07-29T05:23:00.570Z,21.15997314
2022-07-29T05:24:01.289Z,21.15997314
2022-07-29T05:25:08.526Z,21.15997314
2022-07-29T05:26:03.966Z,21.18011475
2022-07-29T05:27:04.662Z,21.18011475
2022-07-29T05:28:05.399Z,21.18011475
2022-07-29T05:29:06.170Z,21.15997314
2022-07-29T05:30:07.054Z,21.19018555
2022-07-29T05:31:08.010Z,21.18011475
2022-07-29T05:32:08.808Z,21.15997314
2022-07-29T05:33:09.524Z,21.15997314
2022-07-29T05:34:10.244Z,21.18011475
2022-07-29T05:35:12.001Z,21.22039795
2022-07-29T05:36:12.899Z,21.24053955
2022-07-29T05:37:13.691Z,21.26068115
2022-07-29T05:38:14.432Z,21.21032715
2022-07-29T05:39:16.025Z,21.22039795
2022-07-29T05:40:16.857Z,21.21032715
2022-07-29T05:41:17.892Z,21.19018555
2022-07-29T05:42:18.574Z,21.18011475
2022-07-29T05:43:19.331Z,21.21032715
2022-07-29T05:44:20.079Z,21.21032715
2022-07-29T05:45:21.478Z,21.21032715
2022-07-29T05:46:22.408Z,21.19018555
2022-07-29T05:47:53.637Z,21.21032715
2022-07-29T05:48:54.359Z,21.24053955
2022-07-29T05:49:55.046Z,21.27075195
2022-07-29T05:50:55.977Z,21.28082275
2022-07-29T05:51:56.731Z,21.30096436
2022-07-29T05:52:58.033Z,21.28082275
2022-07-29T05:53:58.740Z,21.28082275
2022-07-29T05:55:00.069Z,21.28082275
2022-07-29T05:56:00.917Z,21.30096436
2022-07-29T05:57:01.960Z,21.31103516
2022-07-29T05:58:02.648Z,21.28082275
2022-07-29T05:59:03.422Z,21.31103516
2022-07-29T06:00:04.135Z,21.33117676
2022-07-29T06:01:05.106Z,21.34124756
2022-07-29T06:02:05.921Z,21.36138916
2022-07-29T06:03:06.761Z,21.34124756
2022-07-29T06:04:07.542Z,21.27075195
2022-07-29T06:05:10.616Z,21.27075195
2022-07-29T06:06:09.682Z,21.26068115
2022-07-29T06:07:11.656Z,21.27075195
2022-07-29T06:08:12.493Z,21.26068115
2022-07-29T06:09:14.354Z,21.27075195
2022-07-29T06:10:13.966Z,21.26068115
2022-07-29T06:11:15.565Z,21.22039795
2022-07-29T06:12:16.561Z,21.26068115
2022-07-29T06:13:17.267Z,21.24053955
2022-07-29T06:14:18.447Z,21.26068115
2022-07-29T06:15:19.369Z,21.26068115
2022-07-29T06:16:30.324Z,21.27075195
2022-07-29T06:17:21.104Z,21.28082275
2022-07-29T06:18:21.926Z,21.30096436
2022-07-29T06:19:54.077Z,21.30096436
2022-07-29T06:20:54.834Z,21.30096436
2022-07-29T06:21:55.681Z,21.31103516
2022-07-29T06:22:56.598Z,21.31103516
2022-07-29T06:23:57.412Z,21.33117676
2022-07-29T06:24:59.037Z,21.31103516
2022-07-29T06:25:59.750Z,21.31103516
2022-07-29T06:27:00.656Z,21.30096436
2022-07-29T06:28:01.539Z,21.28082275
2022-07-29T06:29:02.356Z,21.26068115
2022-07-29T06:30:03.139Z,21.30096436
2022-07-29T06:31:04.012Z,21.30096436
2022-07-29T06:32:04.809Z,21.28082275
2022-07-29T06:33:05.659Z,21.28082275
2022-07-29T06:34:06.490Z,21.28082275
2022-07-29T06:35:37.558Z,21.28082275
2022-07-29T06:36:08.725Z,21.28082275
2022-07-29T06:37:15.368Z,21.33117676
2022-07-29T06:38:31.649Z,21.33117676
2022-07-29T06:39:12.276Z,21.34124756
2022-07-29T06:40:12.774Z,21.37145996
2022-07-29T06:41:13.487Z,21.38153076
2022-07-29T06:42:14.269Z,21.42181396
2022-07-29T06:43:15.130Z,21.42181396
2022-07-29T06:44:16.380Z,21.43188477
2022-07-29T06:45:17.529Z,21.43188477
2022-07-29T06:46:18.308Z,21.42181396
2022-07-29T06:47:19.061Z,21.42181396
2022-07-29T06:48:19.910Z,21.43188477
2022-07-29T06:49:21.660Z,21.42181396
2022-07-29T06:50:52.757Z,21.38153076
2022-07-29T06:51:53.493Z,21.40167236
2022-07-29T06:52:54.318Z,21.43188477
2022-07-29T06:54:00.394Z,21.43188477
2022-07-29T06:54:57.056Z,21.46209717
2022-07-29T06:55:57.810Z,21.48223877
2022-07-29T06:56:59.495Z,21.52252197
2022-07-29T06:58:00.622Z,21.53259277
2022-07-29T06:59:01.490Z,21.56280518
2022-07-29T07:00:02.048Z,21.59301758
2022-07-29T07:01:02.862Z,21.63330078
2022-07-29T07:02:03.621Z,21.66351318
2022-07-29T07:03:04.422Z,21.67358398
2022-07-29T07:04:05.317Z,21.68365479
2022-07-29T07:05:07.080Z,21.71386719
2022-07-29T07:06:11.936Z,21.73400879
2022-07-29T07:07:08.612Z,21.74407959
2022-07-29T07:08:09.437Z,21.74407959
2022-07-29T07:09:10.331Z,21.75415039
2022-07-29T07:10:11.989Z,21.77429199
2022-07-29T07:11:12.757Z,21.824646
2022-07-29T07:12:13.487Z,21.8145752
2022-07-29T07:13:14.225Z,21.8145752
2022-07-29T07:14:15.644Z,21.79443359
2022-07-29T07:15:16.562Z,21.77429199
2022-07-29T07:16:17.357Z,21.74407959
2022-07-29T07:17:17.978Z,21.71386719
2022-07-29T07:18:18.810Z,21.68365479
2022-07-29T07:19:19.728Z,21.67358398
2022-07-29T07:20:20.550Z,21.67358398
2022-07-29T07:21:21.796Z,21.67358398
2022-07-29T07:22:52.974Z,21.70379639
2022-07-29T07:23:53.804Z,21.70379639
2022-07-29T07:24:55.608Z,21.70379639
2022-07-29T07:25:56.434Z,21.70379639
2022-07-29T07:26:57.928Z,21.70379639
2022-07-29T07:27:58.629Z,21.71386719
2022-07-29T07:28:59.471Z,21.75415039
2022-07-29T07:30:00.484Z,21.77429199
2022-07-29T07:31:01.246Z,21.77429199
2022-07-29T07:32:02.056Z,21.79443359
2022-07-29T07:33:02.725Z,21.8145752
2022-07-29T07:34:04.583Z,21.8347168
2022-07-29T07:35:05.452Z,21.8347168
2022-07-29T07:36:07.015Z,21.8548584
2022-07-29T07:37:07.751Z,21.8347168
2022-07-29T07:38:08.457Z,21.8548584
2022-07-29T07:39:09.282Z,21.824646
2022-07-29T07:40:11.014Z,21.77429199
2022-07-29T07:41:12.515Z,21.75415039
2022-07-29T07:42:13.296Z,21.71386719
2022-07-29T07:43:14.129Z,21.71386719
2022-07-29T07:44:16.214Z,21.67358398
2022-07-29T07:45:16.861Z,21.67358398
2022-07-29T07:46:17.559Z,21.64337158
2022-07-29T07:47:18.319Z,21.64337158
2022-07-29T07:48:19.112Z,21.66351318
2022-07-29T07:49:20.175Z,21.71386719
2022-07-29T07:50:52.240Z,21.73400879
2022-07-29T07:51:53.047Z,21.75415039
2022-07-29T07:52:53.779Z,21.79443359
2022-07-29T07:53:54.544Z,21.824646
2022-07-29T07:54:55.384Z,21.8548584
2022-07-29T07:56:10.629Z,21.8850708
2022-07-29T07:56:57.817Z,21.8951416
2022-07-29T07:57:58.580Z,21.9052124
2022-07-29T07:58:59.287Z,21.9354248
2022-07-29T08:00:00.323Z,21.925354
2022-07-29T08:01:01.327Z,21.925354
2022-07-29T08:02:02.163Z,21.925354
2022-07-29T08:03:02.939Z,21.925354
2022-07-29T08:04:03.635Z,21.925354
2022-07-29T08:05:04.522Z,21.95556641
2022-07-29T08:06:06.032Z,21.95556641
2022-07-29T08:07:06.840Z,22.00592041
2022-07-29T08:08:07.590Z,22.03613281
2022-07-29T08:09:28.163Z,22.05627441
2022-07-29T08:10:10.031Z,22.08648682
2022-07-29T08:11:10.994Z,22.10662842
2022-07-29T08:12:12.512Z,22.10662842
2022-07-29T08:13:13.254Z,22.08648682
2022-07-29T08:14:14.484Z,22.05627441
2022-07-29T08:15:14.787Z,22.07641602
2022-07-29T08:16:16.800Z,22.04620361
2022-07-29T08:17:17.361Z,22.03613281
2022-07-29T08:18:18.106Z,22.03613281
2022-07-29T08:19:18.852Z,22.01599121
2022-07-29T08:20:19.644Z,22.04620361
2022-07-29T08:21:52.309Z,22.05627441
2022-07-29T08:22:52.811Z,22.08648682
2022-07-29T08:23:59.784Z,22.11669922
2022-07-29T08:24:54.980Z,22.14691162
2022-07-29T08:25:56.583Z,22.19726563
2022-07-29T08:26:57.485Z,22.25769043
2022-07-29T08:27:58.253Z,22.28790283
2022-07-29T08:28:59.004Z,22.30804443
2022-07-29T08:29:59.750Z,22.38861084
2022-07-29T08:31:00.552Z,22.45910645
2022-07-29T08:32:02.217Z,22.55981445
2022-07-29T08:33:02.929Z,22.63031006
2022-07-29T08:34:03.681Z,22.72094727
2022-07-29T08:35:04.464Z,22.79144287
2022-07-29T08:36:05.988Z,22.85186768
2022-07-29T08:37:06.902Z,22.89215088
2022-07-29T08:38:07.620Z,22.94250488
2022-07-29T08:39:08.356Z,22.97271729
2022-07-29T08:40:09.959Z,23.01300049
2022-07-29T08:41:10.782Z,23.07342529
2022-07-29T08:42:11.748Z,23.1137085
2022-07-29T08:43:12.459Z,23.1237793
2022-07-29T08:44:13.173Z,23.1842041
2022-07-29T08:45:14.569Z,23.1842041
2022-07-29T08:46:16.109Z,23.1842041
2022-07-29T08:47:16.940Z,23.1640625
2022-07-29T08:48:17.824Z,23.1942749
2022-07-29T08:49:18.640Z,23.2144165
2022-07-29T08:50:19.460Z,23.23455811
2022-07-29T08:51:20.694Z,23.29498291
2022-07-29T08:52:55.381Z,23.29498291
2022-07-29T08:53:52.689Z,23.26477051
2022-07-29T08:54:53.427Z,23.23455811
2022-07-29T08:55:55.109Z,23.2144165
2022-07-29T08:56:55.946Z,23.1842041
2022-07-29T08:57:57.348Z,23.1640625
2022-07-29T08:58:57.503Z,23.1842041
2022-07-29T08:59:58.260Z,23.1942749
2022-07-29T09:00:59.091Z,23.2144165
2022-07-29T09:01:59.997Z,23.23455811
2022-07-29T09:03:00.810Z,23.29498291
2022-07-29T09:04:01.583Z,23.31512451
2022-07-29T09:05:02.234Z,23.37554932
2022-07-29T09:06:04.092Z,23.41583252
2022-07-29T09:07:04.925Z,23.46618652
2022-07-29T09:08:05.804Z,23.49639893
2022-07-29T09:09:07.574Z,23.52661133
2022-07-29T09:10:08.288Z,23.53668213
2022-07-29T09:11:09.147Z,23.55682373
2022-07-29T09:12:09.974Z,23.58703613
2022-07-29T09:13:10.853Z,23.56689453
2022-07-29T09:14:11.652Z,23.56689453
2022-07-29T09:15:12.392Z,23.56689453
2022-07-29T09:16:26.704Z,23.59710693
2022-07-29T09:17:14.983Z,23.59710693
2022-07-29T09:18:26.110Z,23.63739014
2022-07-29T09:19:16.538Z,23.66760254
2022-07-29T09:20:17.262Z,23.67767334
2022-07-29T09:21:18.082Z,23.70788574
2022-07-29T09:22:18.931Z,23.70788574
2022-07-29T09:23:24.153Z,23.73809814
2022-07-29T09:24:51.953Z,23.73809814
2022-07-29T09:25:53.603Z,23.71795654
2022-07-29T09:26:54.765Z,23.70788574
2022-07-29T09:27:55.325Z,23.71795654
2022-07-29T09:28:56.210Z,23.70788574
2022-07-29T09:29:56.957Z,23.68774414
2022-07-29T09:30:57.694Z,23.71795654
2022-07-29T09:31:58.638Z,23.68774414
2022-07-29T09:32:59.477Z,23.70788574
2022-07-29T09:34:00.463Z,23.73809814
2022-07-29T09:35:01.177Z,23.76831055
2022-07-29T09:36:02.445Z,23.78845215
2022-07-29T09:37:04.135Z,23.80859375
2022-07-29T09:38:04.954Z,23.81866455
2022-07-29T09:39:05.827Z,23.83880615
2022-07-29T09:40:11.499Z,23.85894775
2022-07-29T09:41:07.356Z,23.88916016
2022-07-29T09:42:09.130Z,23.88916016
2022-07-29T09:43:09.998Z,23.91937256
2022-07-29T09:44:10.867Z,23.93951416
2022-07-29T09:45:11.655Z,23.96972656
2022-07-29T09:46:13.202Z,24.02008057
2022-07-29T09:47:13.914Z,24.06036377
2022-07-29T09:48:14.726Z,24.09057617
2022-07-29T09:49:15.632Z,24.12078857
2022-07-29T09:50:16.279Z,24.15100098
2022-07-29T09:51:20.063Z,24.19128418
2022-07-29T09:52:17.801Z,24.21142578
2022-07-29T09:53:18.671Z,24.21142578
2022-07-29T09:54:19.958Z,24.21142578
2022-07-29T09:55:51.656Z,24.24163818
2022-07-29T09:56:52.773Z,24.26177979
2022-07-29T09:57:53.395Z,24.30206299
2022-07-29T09:58:54.256Z,24.31213379
2022-07-29T09:59:55.177Z,24.36248779
2022-07-29T10:00:55.921Z,24.4128418
2022-07-29T10:01:56.829Z,24.4229126
2022-07-29T10:02:57.509Z,24.4631958
2022-07-29T10:03:58.320Z,24.5135498
2022-07-29T10:04:59.123Z,24.55383301
2022-07-29T10:05:59.894Z,24.56390381
2022-07-29T10:07:04.731Z,24.61425781
2022-07-29T10:08:02.262Z,24.61425781
2022-07-29T10:09:03.082Z,24.61425781
2022-07-29T10:10:04.497Z,24.63439941
2022-07-29T10:11:05.178Z,24.66461182
2022-07-29T10:12:06.011Z,24.70489502
2022-07-29T10:13:09.913Z,24.71496582
2022-07-29T10:14:07.799Z,24.76531982
2022-07-29T10:15:09.629Z,24.79553223
2022-07-29T10:16:11.126Z,24.82574463
2022-07-29T10:17:12.193Z,24.85595703
2022-07-29T10:18:13.049Z,24.89624023
2022-07-29T10:19:13.835Z,24.92645264
2022-07-29T10:20:16.573Z,24.96673584
2022-07-29T10:21:35.263Z,25.00701904
2022-07-29T10:22:31.197Z,25.00701904
2022-07-29T10:23:17.404Z,25.00701904
2022-07-29T10:24:18.209Z,25.03723145
2022-07-29T10:25:18.992Z,25.03723145
2022-07-29T10:26:50.936Z,25.04730225
2022-07-29T10:27:51.800Z,25.03723145
2022-07-29T10:28:52.669Z,25.06744385
2022-07-29T10:29:53.515Z,25.08758545
2022-07-29T10:30:54.390Z,25.11779785
2022-07-29T10:31:55.491Z,25.10772705
2022-07-29T10:32:55.916Z,25.10772705
2022-07-29T10:33:56.739Z,25.11779785
2022-07-29T10:34:57.541Z,25.13793945
2022-07-29T10:35:58.328Z,25.11779785
2022-07-29T10:36:59.946Z,25.11779785
2022-07-29T10:38:00.760Z,25.10772705
2022-07-29T10:39:03.277Z,25.13793945
2022-07-29T10:40:03.014Z,25.11779785
2022-07-29T10:41:03.766Z,25.13793945
2022-07-29T10:42:04.510Z,25.13793945
2022-07-29T10:43:05.367Z,25.11779785
2022-07-29T10:44:06.184Z,25.13793945
2022-07-29T10:45:07.489Z,25.13793945
2022-07-29T10:46:08.293Z,25.13793945
2022-07-29T10:47:09.462Z,25.15808105
2022-07-29T10:48:10.304Z,25.16815186
2022-07-29T10:49:11.268Z,25.19836426
2022-07-29T10:50:16.870Z,25.19836426
2022-07-29T10:51:12.905Z,25.21850586
2022-07-29T10:52:14.510Z,25.21850586
2022-07-29T10:53:15.297Z,25.22857666
2022-07-29T10:54:16.112Z,25.22857666
2022-07-29T10:55:16.908Z,25.21850586
2022-07-29T10:56:17.673Z,25.11779785
2022-07-29T10:57:53.227Z,25.07751465
2022-07-29T10:58:52.738Z,25.00701904
2022-07-29T10:59:53.123Z,24.92645264
2022-07-29T11:00:53.382Z,24.86602783
2022-07-29T11:01:54.404Z,24.81567383
2022-07-29T11:02:54.948Z,24.78546143
2022-07-29T11:03:57.219Z,24.71496582
2022-07-29T11:04:56.578Z,24.66461182
2022-07-29T11:05:59.480Z,24.60418701
2022-07-29T11:06:59.106Z,24.59411621
2022-07-29T11:07:59.818Z,24.55383301
2022-07-29T11:09:00.629Z,24.5135498